createdAt,value
2023-04-18T00:00:07.778Z,1242.00
2023-04-18T00:01:07.751Z,1259.00
2023-04-18T00:02:07.811Z,1237.00
2023-04-18T00:03:07.894Z,1217.00
2023-04-18T00:04:07.925Z,1260.00
2023-04-18T00:05:07.828Z,1259.00
2023-04-18T00:06:07.741Z,1222.00
2023-04-18T00:07:07.767Z,1244.00
2023-04-18T00:08:07.728Z,1236.00
2023-04-18T00:09:07.817Z,1188.00
2023-04-18T00:10:07.709Z,1209.00
2023-04-18T00:11:07.710Z,1232.00
2023-04-18T00:12:07.703Z,1232.00
2023-04-18T00:13:07.682Z,1226.00
2023-04-18T00:14:07.662Z,1216.00
2023-04-18T00:15:07.655Z,1183.00
2023-04-18T00:16:07.649Z,1176.00
2023-04-18T00:17:07.742Z,1175.00
2023-04-18T00:18:07.703Z,1154.00
2023-04-18T00:19:07.661Z,1163.00
2023-04-18T00:20:07.667Z,1161.00
2023-04-18T00:21:07.675Z,1156.00
2023-04-18T00:22:07.692Z,1204.00
2023-04-18T00:23:07.718Z,1197.00
2023-04-18T00:24:07.746Z,1220.00
2023-04-18T00:25:07.756Z,1224.00
2023-04-18T00:26:07.753Z,1196.00
2023-04-18T00:27:07.758Z,1200.00
2023-04-18T00:28:07.816Z,1235.00
2023-04-18T00:29:07.766Z,1245.00
2023-04-18T00:30:07.761Z,1225.00
2023-04-18T00:31:07.980Z,1242.00
2023-04-18T00:32:07.759Z,1245.00
2023-04-18T00:33:07.790Z,1245.00
2023-04-18T00:34:07.832Z,1227.00
2023-04-18T00:35:07.901Z,1225.00
2023-04-18T00:36:07.791Z,1241.00
2023-04-18T00:37:07.799Z,1214.00
2023-04-18T00:38:07.801Z,1174.00
2023-04-18T00:39:07.785Z,1183.00
2023-04-18T00:40:07.807Z,1168.00
2023-04-18T00:41:07.827Z,1136.00
2023-04-18T00:42:07.811Z,1140.00
2023-04-18T00:43:07.820Z,1144.00
2023-04-18T00:44:07.807Z,1135.00
2023-04-18T00:45:07.838Z,1128.00
2023-04-18T00:46:07.892Z,1149.00
2023-04-18T00:47:07.890Z,1097.00
2023-04-18T00:48:07.957Z,1123.00
2023-04-18T00:49:07.942Z,1110.00
2023-04-18T00:50:07.945Z,1144.00
2023-04-18T00:51:07.971Z,1153.00
2023-04-18T00:52:07.984Z,1152.00
2023-04-18T00:53:08.016Z,1122.00
2023-04-18T00:54:08.009Z,1111.00
2023-04-18T00:55:08.011Z,1096.00
2023-04-18T00:56:08.000Z,1076.00
2023-04-18T00:57:08.029Z,1069.00
2023-04-18T00:58:08.869Z,1108.00
2023-04-18T00:59:08.056Z,1120.00
2023-04-18T01:00:08.058Z,1102.00
2023-04-18T01:01:08.125Z,1075.00
2023-04-18T01:02:08.179Z,1075.00
2023-04-18T01:03:08.298Z,1090.00
2023-04-18T01:04:08.196Z,1086.00
2023-04-18T01:05:08.143Z,1094.00
2023-04-18T01:06:08.136Z,1086.00
2023-04-18T01:07:08.146Z,1079.00
2023-04-18T01:08:08.220Z,1089.00
2023-04-18T01:09:08.173Z,1093.00
2023-04-18T01:10:08.165Z,1096.00
2023-04-18T01:11:08.155Z,1117.00
2023-04-18T01:12:08.161Z,1148.00
2023-04-18T01:13:08.152Z,1142.00
2023-04-18T01:14:08.166Z,1133.00
2023-04-18T01:15:08.158Z,1094.00
2023-04-18T01:16:08.196Z,1070.00
2023-04-18T01:17:08.163Z,1093.00
2023-04-18T01:18:08.191Z,1091.00
2023-04-18T01:19:08.214Z,1098.00
2023-04-18T01:20:08.245Z,1085.00
2023-04-18T01:21:08.239Z,1099.00
2023-04-18T01:22:08.243Z,1073.00
2023-04-18T01:23:08.257Z,1055.00
2023-04-18T01:24:08.259Z,1031.00
2023-04-18T01:25:08.224Z,1061.00
2023-04-18T01:26:08.220Z,1067.00
2023-04-18T01:27:08.306Z,1075.00
2023-04-18T01:28:08.207Z,1108.00
2023-04-18T01:29:08.219Z,1065.00
2023-04-18T01:30:08.234Z,1104.00
2023-04-18T01:31:08.242Z,1104.00
2023-04-18T01:32:08.206Z,1108.00
2023-04-18T01:33:08.180Z,1121.00
2023-04-18T01:34:08.195Z,1125.00
2023-04-18T01:35:08.182Z,1151.00
2023-04-18T01:36:08.150Z,1121.00
2023-04-18T01:37:08.144Z,1146.00
2023-04-18T01:38:08.155Z,1130.00
2023-04-18T01:39:08.212Z,1127.00
2023-04-18T01:40:08.171Z,1139.00
2023-04-18T01:41:08.190Z,1099.00
2023-04-18T01:42:08.205Z,1059.00
2023-04-18T01:43:08.223Z,1064.00
2023-04-18T01:44:08.248Z,1053.00
2023-04-18T01:45:08.261Z,1051.00
2023-04-18T01:46:08.315Z,1048.00
2023-04-18T01:47:08.291Z,1036.00
2023-04-18T01:48:08.296Z,1032.00
2023-04-18T01:49:08.285Z,1027.00
2023-04-18T01:50:08.300Z,1003.00
2023-04-18T01:51:08.307Z,1002.00
2023-04-18T01:52:08.321Z,988.00
2023-04-18T01:53:08.323Z,1007.00
2023-04-18T01:54:08.342Z,1002.00
2023-04-18T01:55:08.346Z,999.00
2023-04-18T01:56:08.362Z,1004.00
2023-04-18T01:57:08.373Z,996.00
2023-04-18T01:58:08.398Z,1027.00
2023-04-18T01:59:08.407Z,1003.00
2023-04-18T02:00:08.427Z,1023.00
2023-04-18T02:01:08.518Z,1050.00
2023-04-18T02:02:08.571Z,1043.00
2023-04-18T02:03:08.541Z,1045.00
2023-04-18T02:04:08.513Z,1025.00
2023-04-18T02:05:08.530Z,1001.00
2023-04-18T02:06:08.465Z,1009.00
2023-04-18T02:07:08.499Z,1025.00
2023-04-18T02:08:08.500Z,1034.00
2023-04-18T02:09:08.522Z,1047.00
2023-04-18T02:10:08.522Z,1039.00
2023-04-18T02:11:08.522Z,1042.00
2023-04-18T02:12:08.572Z,1065.00
2023-04-18T02:13:08.569Z,1026.00
2023-04-18T02:14:08.578Z,1006.00
2023-04-18T02:15:08.629Z,980.00
2023-04-18T02:16:08.658Z,980.00
2023-04-18T02:17:08.665Z,998.00
2023-04-18T02:18:08.701Z,1004.00
2023-04-18T02:19:08.739Z,1051.00
2023-04-18T02:20:08.748Z,1045.00
2023-04-18T02:21:08.767Z,1034.00
2023-04-18T02:22:08.802Z,1003.00
2023-04-18T02:23:08.816Z,990.00
2023-04-18T02:24:08.856Z,972.00
2023-04-18T02:25:08.868Z,958.00
2023-04-18T02:26:08.911Z,939.00
2023-04-18T02:27:08.943Z,945.00
2023-04-18T02:28:08.956Z,973.00
2023-04-18T02:29:08.967Z,992.00
2023-04-18T02:30:08.980Z,1027.00
2023-04-18T02:31:09.006Z,1004.00
2023-04-18T02:32:09.148Z,972.00
2023-04-18T02:33:09.055Z,951.00
2023-04-18T02:34:09.058Z,990.00
2023-04-18T02:35:09.068Z,988.00
2023-04-18T02:36:09.102Z,987.00
2023-04-18T02:37:09.125Z,971.00
2023-04-18T02:38:09.133Z,990.00
2023-04-18T02:39:09.146Z,1011.00
2023-04-18T02:40:09.180Z,979.00
2023-04-18T02:41:09.200Z,955.00
2023-04-18T02:42:09.209Z,959.00
2023-04-18T02:43:09.220Z,952.00
2023-04-18T02:44:09.238Z,961.00
2023-04-18T02:45:09.246Z,988.00
2023-04-18T02:46:09.265Z,998.00
2023-04-18T02:47:09.228Z,961.00
2023-04-18T02:48:09.288Z,983.00
2023-04-18T02:49:09.246Z,948.00
2023-04-18T02:50:09.259Z,950.00
2023-04-18T02:51:09.275Z,966.00
2023-04-18T02:52:09.285Z,944.00
2023-04-18T02:53:09.305Z,941.00
2023-04-18T02:54:09.316Z,955.00
2023-04-18T02:55:09.344Z,904.00
2023-04-18T02:56:09.352Z,912.00
2023-04-18T02:57:09.349Z,906.00
2023-04-18T02:58:09.348Z,920.00
2023-04-18T02:59:09.366Z,948.00
2023-04-18T03:00:09.380Z,977.00
2023-04-18T03:01:09.432Z,982.00
2023-04-18T03:02:09.465Z,969.00
2023-04-18T03:03:09.471Z,930.00
2023-04-18T03:04:09.428Z,927.00
2023-04-18T03:05:09.460Z,906.00
2023-04-18T03:06:09.455Z,914.00
2023-04-18T03:07:09.478Z,885.00
2023-04-18T03:08:09.498Z,878.00
2023-04-18T03:09:09.502Z,890.00
2023-04-18T03:10:09.550Z,881.00
2023-04-18T03:11:09.538Z,884.00
2023-04-18T03:12:09.545Z,879.00
2023-04-18T03:13:09.556Z,864.00
2023-04-18T03:14:09.572Z,872.00
2023-04-18T03:15:09.571Z,858.00
2023-04-18T03:16:09.610Z,866.00
2023-04-18T03:17:09.568Z,861.00
2023-04-18T03:18:09.588Z,847.00
2023-04-18T03:19:09.623Z,836.00
2023-04-18T03:20:09.651Z,842.00
2023-04-18T03:21:09.660Z,839.00
2023-04-18T03:22:09.681Z,834.00
2023-04-18T03:23:09.715Z,823.00
2023-04-18T03:24:11.956Z,835.00
2023-04-18T03:25:09.803Z,821.00
2023-04-18T03:26:09.848Z,819.00
2023-04-18T03:27:09.838Z,833.00
2023-04-18T03:28:09.855Z,816.00
2023-04-18T03:29:09.879Z,812.00
2023-04-18T03:30:09.915Z,809.00
2023-04-18T03:31:09.925Z,808.00
2023-04-18T03:32:09.925Z,802.00
2023-04-18T03:33:09.930Z,817.00
2023-04-18T03:34:09.959Z,797.00
2023-04-18T03:35:09.972Z,809.00
2023-04-18T03:36:09.960Z,800.00
2023-04-18T03:37:09.978Z,785.00
2023-04-18T03:38:09.996Z,791.00
2023-04-18T03:39:10.008Z,794.00
2023-04-18T03:40:10.019Z,773.00
2023-04-18T03:41:10.114Z,768.00
2023-04-18T03:42:10.033Z,770.00
2023-04-18T03:43:10.033Z,785.00
2023-04-18T03:44:10.052Z,763.00
2023-04-18T03:45:10.077Z,774.00
2023-04-18T03:46:10.126Z,781.00
2023-04-18T03:47:10.118Z,776.00
2023-04-18T03:48:10.118Z,762.00
2023-04-18T03:49:10.135Z,760.00
2023-04-18T03:50:10.140Z,766.00
2023-04-18T03:51:10.144Z,742.00
2023-04-18T03:52:10.160Z,748.00
2023-04-18T03:53:10.144Z,759.00
2023-04-18T03:54:10.177Z,739.00
2023-04-18T03:55:10.173Z,753.00
2023-04-18T03:56:10.186Z,732.00
2023-04-18T03:57:10.192Z,746.00
2023-04-18T03:58:10.184Z,729.00
2023-04-18T03:59:10.222Z,747.00
2023-04-18T04:00:10.227Z,733.00
2023-04-18T04:01:10.235Z,741.00
2023-04-18T04:02:10.302Z,723.00
2023-04-18T04:03:10.366Z,744.00
2023-04-18T04:04:10.305Z,733.00
2023-04-18T04:05:10.428Z,754.00
2023-04-18T04:06:10.311Z,730.00
2023-04-18T04:07:10.338Z,732.00
2023-04-18T04:08:10.354Z,733.00
2023-04-18T04:09:10.369Z,748.00
2023-04-18T04:10:10.403Z,734.00
2023-04-18T04:11:10.419Z,721.00
2023-04-18T04:12:10.421Z,718.00
2023-04-18T04:13:10.427Z,704.00
2023-04-18T04:14:10.448Z,726.00
2023-04-18T04:15:10.449Z,722.00
2023-04-18T04:16:10.466Z,716.00
2023-04-18T04:17:10.443Z,736.00
2023-04-18T04:18:10.627Z,717.00
2023-04-18T04:19:10.451Z,718.00
2023-04-18T04:20:10.438Z,724.00
2023-04-18T04:21:10.459Z,731.00
2023-04-18T04:22:10.449Z,712.00
2023-04-18T04:23:10.467Z,738.00
2023-04-18T04:24:10.474Z,719.00
2023-04-18T04:25:10.494Z,711.00
2023-04-18T04:26:10.517Z,703.00
2023-04-18T04:27:10.535Z,722.00
2023-04-18T04:28:10.546Z,698.00
2023-04-18T04:29:10.543Z,709.00
2023-04-18T04:30:13.153Z,730.00
2023-04-18T04:31:10.543Z,712.00
2023-04-18T04:32:10.483Z,726.00
2023-04-18T04:33:10.411Z,712.00
2023-04-18T04:34:10.376Z,718.00
2023-04-18T04:35:10.322Z,706.00
2023-04-18T04:36:10.268Z,715.00
2023-04-18T04:37:10.237Z,699.00
2023-04-18T04:38:10.181Z,730.00
2023-04-18T04:39:10.144Z,725.00
2023-04-18T04:40:10.111Z,702.00
2023-04-18T04:41:10.057Z,707.00
2023-04-18T04:42:10.016Z,724.00
2023-04-18T04:43:09.962Z,719.00
2023-04-18T04:44:09.935Z,721.00
2023-04-18T04:45:09.868Z,700.00
2023-04-18T04:46:09.873Z,699.00
2023-04-18T04:47:09.816Z,722.00
2023-04-18T04:48:09.759Z,705.00
2023-04-18T04:49:09.709Z,697.00
2023-04-18T04:50:09.657Z,714.00
2023-04-18T04:51:09.610Z,702.00
2023-04-18T04:52:09.563Z,712.00
2023-04-18T04:53:09.516Z,706.00
2023-04-18T04:54:09.476Z,715.00
2023-04-18T04:55:09.443Z,717.00
2023-04-18T04:56:09.397Z,699.00
2023-04-18T04:57:09.345Z,704.00
2023-04-18T04:58:09.291Z,698.00
2023-04-18T04:59:09.252Z,712.00
2023-04-18T05:00:09.206Z,709.00
2023-04-18T05:01:09.262Z,717.00
2023-04-18T05:02:09.216Z,700.00
2023-04-18T05:03:09.305Z,695.00
2023-04-18T05:04:09.164Z,710.00
2023-04-18T05:05:09.001Z,739.00
2023-04-18T05:06:08.948Z,766.00
2023-04-18T05:07:08.911Z,827.00
2023-04-18T05:08:08.889Z,920.00
2023-04-18T05:09:08.858Z,873.00
2023-04-18T05:10:08.823Z,884.00
2023-04-18T05:11:08.783Z,853.00
2023-04-18T05:12:08.801Z,836.00
2023-04-18T05:13:08.841Z,846.00
2023-04-18T05:14:08.853Z,880.00
2023-04-18T05:15:08.866Z,914.00
2023-04-18T05:16:08.835Z,894.00
2023-04-18T05:17:08.966Z,941.00
2023-04-18T05:18:08.810Z,955.00
2023-04-18T05:19:08.752Z,948.00
2023-04-18T05:20:08.718Z,979.00
2023-04-18T05:21:08.702Z,991.00
2023-04-18T05:22:08.670Z,1005.00
2023-04-18T05:23:10.502Z,981.00
2023-04-18T05:24:08.642Z,1021.00
2023-04-18T05:25:09.490Z,1063.00
2023-04-18T05:26:08.568Z,1065.00
2023-04-18T05:27:09.491Z,1074.00
2023-04-18T05:28:08.582Z,1103.00
2023-04-18T05:29:08.500Z,1143.00
2023-04-18T05:30:08.475Z,1069.00
2023-04-18T05:31:08.523Z,1092.00
2023-04-18T05:32:08.420Z,1136.00
2023-04-18T05:33:08.416Z,1202.00
2023-04-18T05:34:08.337Z,1237.00
2023-04-18T05:35:08.333Z,1263.00
2023-04-18T05:36:08.265Z,1198.00
2023-04-18T05:37:08.221Z,1101.00
2023-04-18T05:38:08.185Z,1044.00
2023-04-18T05:39:08.238Z,1048.00
2023-04-18T05:40:08.140Z,1007.00
2023-04-18T05:41:08.105Z,1003.00
2023-04-18T05:42:08.055Z,1033.00
2023-04-18T05:43:08.025Z,1092.00
2023-04-18T05:44:07.996Z,1182.00
2023-04-18T05:45:07.958Z,1238.00
2023-04-18T05:46:07.944Z,1267.00
2023-04-18T05:47:07.876Z,1285.00
2023-04-18T05:48:07.934Z,1326.00
2023-04-18T05:49:07.801Z,1350.00
2023-04-18T05:50:07.761Z,1369.00
2023-04-18T05:51:07.815Z,1342.00
2023-04-18T05:52:07.764Z,1287.00
2023-04-18T05:53:07.792Z,1249.00
2023-04-18T05:54:07.830Z,1286.00
2023-04-18T05:55:07.850Z,1307.00
2023-04-18T05:56:07.876Z,1321.00
2023-04-18T05:57:07.918Z,1321.00
2023-04-18T05:58:07.936Z,1216.00
2023-04-18T05:59:08.432Z,1079.00
2023-04-18T06:00:07.896Z,973.00
2023-04-18T06:01:07.902Z,909.00
2023-04-18T06:02:07.966Z,918.00
2023-04-18T06:03:10.684Z,905.00
2023-04-18T06:04:07.982Z,908.00
2023-04-18T06:05:08.076Z,976.00
2023-04-18T06:06:07.772Z,1062.00
2023-04-18T06:07:07.731Z,1106.00
2023-04-18T06:08:07.694Z,1109.00
2023-04-18T06:09:07.643Z,1128.00
2023-04-18T06:10:07.624Z,1178.00
2023-04-18T06:11:09.562Z,1241.00
2023-04-18T06:12:07.529Z,1356.00
2023-04-18T06:13:08.041Z,1382.00
2023-04-18T06:14:07.438Z,1387.00
2023-04-18T06:15:07.402Z,1384.00
2023-04-18T06:16:07.409Z,1395.00
2023-04-18T06:17:07.327Z,1402.00
2023-04-18T06:18:07.400Z,1407.00
2023-04-18T06:19:07.283Z,1409.00
2023-04-18T06:20:07.252Z,1414.00
2023-04-18T06:21:07.241Z,1416.00
2023-04-18T06:22:07.191Z,1421.00
2023-04-18T06:23:07.147Z,1440.00
2023-04-18T06:24:07.098Z,1433.00
2023-04-18T06:25:07.077Z,1456.00
2023-04-18T06:26:09.049Z,1461.00
2023-04-18T06:27:09.324Z,1468.00
2023-04-18T06:28:07.969Z,1471.00
2023-04-18T06:29:07.078Z,1434.00
2023-04-18T06:30:06.891Z,1356.00
2023-04-18T06:31:07.528Z,1303.00
2023-04-18T06:32:06.843Z,1250.00
2023-04-18T06:33:06.822Z,1261.00
2023-04-18T06:34:06.786Z,1260.00
2023-04-18T06:35:10.038Z,1257.00
2023-04-18T06:36:06.711Z,1278.00
2023-04-18T06:37:06.704Z,1292.00
2023-04-18T06:38:07.030Z,1282.00
2023-04-18T06:39:06.610Z,1283.00
2023-04-18T06:40:06.562Z,1282.00
2023-04-18T06:41:06.542Z,1283.00
2023-04-18T06:42:06.476Z,1286.00
2023-04-18T06:43:09.574Z,1304.00
2023-04-18T06:44:06.380Z,1342.00
2023-04-18T06:45:07.038Z,1366.00
2023-04-18T06:46:06.377Z,1352.00
2023-04-18T06:47:06.264Z,1388.00
2023-04-18T06:48:06.305Z,1366.00
2023-04-18T06:49:08.060Z,1301.00
2023-04-18T06:50:06.169Z,1331.00
2023-04-18T06:51:06.099Z,1287.00
2023-04-18T06:52:06.059Z,1340.00
2023-04-18T06:53:06.022Z,1370.00
2023-04-18T06:54:07.560Z,1394.00
2023-04-18T06:55:05.943Z,1387.00
2023-04-18T06:56:05.902Z,1429.00
2023-04-18T06:57:05.899Z,1432.00
2023-04-18T06:58:05.860Z,1442.00
2023-04-18T06:59:05.898Z,1452.00
2023-04-18T07:00:05.917Z,1459.00
2023-04-18T07:01:06.921Z,1461.00
2023-04-18T07:02:05.839Z,1464.00
2023-04-18T07:03:07.079Z,1469.00
2023-04-18T07:04:05.882Z,1493.00
2023-04-18T07:05:05.707Z,1488.00
2023-04-18T07:06:06.550Z,1517.00
2023-04-18T07:07:05.751Z,1506.00
2023-04-18T07:08:05.754Z,1540.00
2023-04-18T07:09:05.707Z,1541.00
2023-04-18T07:10:07.506Z,1547.00
2023-04-18T07:11:05.628Z,1557.00
2023-04-18T07:12:05.593Z,1570.00
2023-04-18T07:13:05.564Z,1579.00
2023-04-18T07:14:05.528Z,1560.00
2023-04-18T07:15:05.644Z,1526.00
2023-04-18T07:16:05.441Z,1494.00
2023-04-18T07:17:05.585Z,1450.00
2023-04-18T07:18:05.473Z,1421.00
2023-04-18T07:19:05.409Z,1421.00
2023-04-18T07:20:05.374Z,1373.00
2023-04-18T07:21:05.360Z,1347.00
2023-04-18T07:22:06.044Z,1311.00
2023-04-18T07:23:05.973Z,1283.00
2023-04-18T07:24:05.255Z,1347.00
2023-04-18T07:25:05.971Z,1427.00
2023-04-18T07:26:05.178Z,1447.00
2023-04-18T07:27:05.138Z,1478.00
2023-04-18T07:28:05.096Z,1526.00
2023-04-18T07:29:05.053Z,1577.00
2023-04-18T07:30:05.551Z,1601.00
2023-04-18T07:31:05.006Z,1543.00
2023-04-18T07:32:06.869Z,1424.00
2023-04-18T07:33:04.968Z,1369.00
2023-04-18T07:34:04.895Z,1281.00
2023-04-18T07:35:04.850Z,1187.00
2023-04-18T07:36:04.856Z,1191.00
2023-04-18T07:37:04.828Z,1151.00
2023-04-18T07:38:04.728Z,1184.00
2023-04-18T07:39:04.698Z,1254.00
2023-04-18T07:40:04.654Z,1230.00
2023-04-18T07:41:04.627Z,1249.00
2023-04-18T07:42:04.600Z,1253.00
2023-04-18T07:43:04.555Z,1259.00
2023-04-18T07:44:04.508Z,1270.00
2023-04-18T07:45:04.480Z,1309.00
2023-04-18T07:46:04.467Z,1306.00
2023-04-18T07:47:04.447Z,1330.00
2023-04-18T07:48:04.413Z,1354.00
2023-04-18T07:49:04.332Z,1352.00
2023-04-18T07:50:05.065Z,1387.00
2023-04-18T07:51:04.257Z,1406.00
2023-04-18T07:52:04.231Z,1419.00
2023-04-18T07:53:04.182Z,1394.00
2023-04-18T07:54:04.152Z,1404.00
2023-04-18T07:55:04.108Z,1419.00
2023-04-18T07:56:05.068Z,1425.00
2023-04-18T07:57:05.598Z,1449.00
2023-04-18T07:58:03.986Z,1426.00
2023-04-18T07:59:03.950Z,1407.00
2023-04-18T08:00:04.494Z,1399.00
2023-04-18T08:01:03.883Z,1402.00
2023-04-18T08:02:03.859Z,1421.00
2023-04-18T08:04:03.928Z,1401.00
2023-04-18T08:05:03.806Z,1391.00
2023-04-18T08:06:03.697Z,1379.00
2023-04-18T08:07:03.653Z,1380.00
2023-04-18T08:08:03.614Z,1383.00
2023-04-18T08:09:03.572Z,1387.00
2023-04-18T08:10:03.553Z,1435.00
2023-04-18T08:11:05.092Z,1514.00
2023-04-18T08:12:03.460Z,1467.00
2023-04-18T08:13:03.449Z,1409.00
2023-04-18T08:14:03.396Z,1426.00
2023-04-18T08:15:03.372Z,1469.00
2023-04-18T08:16:03.364Z,1486.00
2023-04-18T08:17:04.077Z,1477.00
2023-04-18T08:18:03.623Z,1478.00
2023-04-18T08:19:03.334Z,1479.00
2023-04-18T08:20:03.195Z,1478.00
2023-04-18T08:21:03.165Z,1415.00
2023-04-18T08:22:03.141Z,1401.00
2023-04-18T08:23:07.958Z,1379.00
2023-04-18T08:24:04.078Z,1381.00
2023-04-18T08:25:05.560Z,1311.00
2023-04-18T08:26:02.955Z,1306.00
2023-04-18T08:27:02.913Z,1307.00
2023-04-18T08:28:02.884Z,1277.00
2023-04-18T08:29:02.837Z,1291.00
2023-04-18T08:30:02.781Z,1293.00
2023-04-18T08:31:02.722Z,1299.00
2023-04-18T08:32:05.697Z,1314.00
2023-04-18T08:33:02.750Z,1345.00
2023-04-18T08:34:04.523Z,1370.00
2023-04-18T08:35:02.688Z,1295.00
2023-04-18T08:36:02.692Z,1307.00
2023-04-18T08:37:02.720Z,1333.00
2023-04-18T08:38:02.723Z,1355.00
2023-04-18T08:39:02.723Z,1396.00
2023-04-18T08:40:02.764Z,1409.00
2023-04-18T08:41:02.738Z,1380.00
2023-04-18T08:42:02.765Z,1374.00
2023-04-18T08:43:02.781Z,1361.00
2023-04-18T08:44:02.815Z,1354.00
2023-04-18T08:45:02.869Z,1348.00
2023-04-18T08:46:02.921Z,1349.00
2023-04-18T08:47:02.889Z,1342.00
2023-04-18T08:48:03.010Z,1335.00
2023-04-18T08:49:02.925Z,1342.00
2023-04-18T08:50:02.893Z,1342.00
2023-04-18T08:51:02.999Z,1337.00
2023-04-18T08:52:02.809Z,1320.00
2023-04-18T08:53:02.767Z,1315.00
2023-04-18T08:54:02.723Z,1304.00
2023-04-18T08:55:02.712Z,1297.00
2023-04-18T08:56:02.664Z,1265.00
2023-04-18T08:57:02.611Z,1256.00
2023-04-18T08:58:02.603Z,1247.00
2023-04-18T08:59:02.626Z,1200.00
2023-04-18T09:00:02.628Z,1210.00
2023-04-18T09:01:02.651Z,1211.00
2023-04-18T09:02:02.629Z,1215.00
2023-04-18T09:03:02.733Z,1211.00
2023-04-18T09:04:02.512Z,1214.00
2023-04-18T09:05:02.408Z,1200.00
2023-04-18T09:06:02.612Z,1206.00
2023-04-18T09:07:02.346Z,1180.00
2023-04-18T09:08:02.290Z,1179.00
2023-04-18T09:09:02.274Z,1180.00
2023-04-18T09:10:02.276Z,1169.00
2023-04-18T09:11:02.169Z,1177.00
2023-04-18T09:12:02.188Z,1164.00
2023-04-18T09:13:02.236Z,1163.00
2023-04-18T09:14:02.264Z,1152.00
2023-04-18T09:15:06.119Z,1156.00
2023-04-18T09:16:02.256Z,1162.00
2023-04-18T09:17:02.268Z,1149.00
2023-04-18T09:18:02.227Z,1146.00
2023-04-18T09:19:02.151Z,1147.00
2023-04-18T09:20:02.175Z,1148.00
2023-04-18T09:21:02.141Z,1150.00
2023-04-18T09:22:02.053Z,1156.00
2023-04-18T09:23:02.007Z,1168.00
2023-04-18T09:24:01.974Z,1146.00
2023-04-18T09:25:01.947Z,1075.00
2023-04-18T09:26:01.892Z,920.00
2023-04-18T09:27:02.846Z,881.00
2023-04-18T09:28:01.826Z,921.00
2023-04-18T09:29:01.747Z,928.00
2023-04-18T09:30:01.755Z,994.00
2023-04-18T09:31:01.831Z,1072.00
2023-04-18T09:32:01.715Z,1079.00
2023-04-18T09:33:01.698Z,1091.00
2023-04-18T09:34:01.498Z,1078.00
2023-04-18T09:35:03.404Z,1104.00
2023-04-18T09:36:01.441Z,1094.00
2023-04-18T09:37:01.385Z,764.00
2023-04-18T09:38:01.312Z,487.00
2023-04-18T09:39:02.040Z,400.00
2023-04-18T09:40:01.235Z,400.00
2023-04-18T09:41:01.201Z,400.00
2023-04-18T09:42:01.181Z,400.00
2023-04-18T09:43:01.164Z,400.00
2023-04-18T09:44:01.120Z,400.00
2023-04-18T09:45:01.193Z,400.00
2023-04-18T09:46:01.162Z,400.00
2023-04-18T09:47:01.101Z,400.00
2023-04-18T09:48:01.122Z,400.00
2023-04-18T09:49:01.073Z,400.00
2023-04-18T09:50:01.058Z,400.00
2023-04-18T09:51:01.051Z,400.00
2023-04-18T09:52:01.033Z,400.00
2023-04-18T09:53:01.002Z,417.00
2023-04-18T09:54:00.969Z,500.00
2023-04-18T09:55:00.949Z,529.00
2023-04-18T09:56:00.911Z,564.00
2023-04-18T09:57:00.891Z,621.00
2023-04-18T09:58:00.812Z,664.00
2023-04-18T09:59:00.773Z,759.00
2023-04-18T10:00:01.150Z,878.00
2023-04-18T10:01:00.690Z,1085.00
2023-04-18T10:02:00.716Z,1135.00
2023-04-18T10:03:00.710Z,1187.00
2023-04-18T10:04:00.697Z,1225.00
2023-04-18T10:05:00.648Z,1322.00
2023-04-18T10:06:00.507Z,1363.00
2023-04-18T10:07:00.466Z,1410.00
2023-04-18T10:08:00.419Z,1533.00
2023-04-18T10:09:00.387Z,1606.00
2023-04-18T10:10:00.350Z,1752.00
2023-04-18T10:11:00.401Z,1776.00
2023-04-18T10:12:00.262Z,1849.00
2023-04-18T10:13:00.266Z,1897.00
2023-04-18T10:14:00.190Z,1957.00
2023-04-18T10:15:00.168Z,2069.00
2023-04-18T10:16:01.094Z,2136.00
2023-04-18T10:17:00.132Z,2219.00
2023-04-18T10:18:05.395Z,2261.00
2023-04-18T10:19:01.011Z,2264.00
2023-04-18T10:19:59.977Z,2278.00
2023-04-18T10:21:00.628Z,2314.00
2023-04-18T10:21:59.873Z,2382.00
2023-04-18T10:23:01.596Z,2457.00
2023-04-18T10:23:59.766Z,2512.00
2023-04-18T10:24:59.712Z,2533.00
2023-04-18T10:25:59.681Z,2544.00
2023-04-18T10:26:59.676Z,2557.00
2023-04-18T10:27:59.678Z,2609.00
2023-04-18T10:28:59.685Z,2640.00
2023-04-18T10:29:59.689Z,2660.00
2023-04-18T10:30:59.728Z,2673.00
2023-04-18T10:31:59.845Z,2699.00
2023-04-18T10:32:59.790Z,2709.00
2023-04-18T10:34:05.320Z,2714.00
2023-04-18T10:35:00.733Z,2715.00
2023-04-18T10:35:59.662Z,2720.00
2023-04-18T10:36:59.630Z,2730.00
2023-04-18T10:37:59.624Z,2750.00
2023-04-18T10:38:59.537Z,2777.00
2023-04-18T10:39:59.505Z,2793.00
2023-04-18T10:40:59.448Z,2752.00
2023-04-18T10:41:59.410Z,2746.00
2023-04-18T10:42:59.402Z,2782.00
2023-04-18T10:43:59.411Z,2829.00
2023-04-18T10:44:59.431Z,2850.00
2023-04-18T10:45:59.526Z,2877.00
2023-04-18T10:46:59.474Z,2880.00
2023-04-18T10:48:00.139Z,2889.00
2023-04-18T10:48:59.505Z,2904.00
2023-04-18T10:49:59.522Z,2917.00
2023-04-18T10:50:59.544Z,2903.00
2023-04-18T10:51:59.577Z,2905.00
2023-04-18T10:52:59.594Z,2918.00
2023-04-18T10:53:59.584Z,2910.00
2023-04-18T10:54:59.570Z,2910.00
2023-04-18T10:55:59.594Z,2932.00
2023-04-18T10:56:59.625Z,2945.00
2023-04-18T10:57:59.624Z,2971.00
2023-04-18T10:58:59.636Z,2963.00
2023-04-18T10:59:59.642Z,2960.00
2023-04-18T11:00:59.685Z,2923.00
2023-04-18T11:01:59.696Z,2919.00
2023-04-18T11:02:59.798Z,2919.00
2023-04-18T11:03:59.802Z,2918.00
2023-04-18T11:04:59.666Z,2938.00
2023-04-18T11:05:59.670Z,2939.00
2023-04-18T11:06:59.673Z,2991.00
2023-04-18T11:07:59.620Z,2988.00
2023-04-18T11:08:59.618Z,2977.00
2023-04-18T11:09:59.579Z,2997.00
2023-04-18T11:10:59.582Z,3074.00
2023-04-18T11:11:59.577Z,3054.00
2023-04-18T11:12:59.605Z,3045.00
2023-04-18T11:13:59.629Z,3025.00
2023-04-18T11:14:59.639Z,3051.00
2023-04-18T11:15:59.674Z,3061.00
2023-04-18T11:16:59.740Z,3060.00
2023-04-18T11:17:59.742Z,3088.00
2023-04-18T11:18:59.705Z,3113.00
2023-04-18T11:19:59.713Z,3125.00
2023-04-18T11:20:59.725Z,3127.00
2023-04-18T11:21:59.802Z,3133.00
2023-04-18T11:22:59.757Z,3132.00
2023-04-18T11:23:59.745Z,3149.00
2023-04-18T11:24:59.742Z,3164.00
2023-04-18T11:25:59.781Z,3180.00
2023-04-18T11:26:59.793Z,3179.00
2023-04-18T11:27:59.847Z,3186.00
2023-04-18T11:28:59.822Z,3212.00
2023-04-18T11:29:59.831Z,3236.00
2023-04-18T11:30:59.905Z,3231.00
2023-04-18T11:31:59.867Z,3245.00
2023-04-18T11:32:59.951Z,3303.00
2023-04-18T11:33:59.882Z,3339.00
2023-04-18T11:35:00.678Z,3381.00
2023-04-18T11:35:59.969Z,3400.00
2023-04-18T11:36:59.967Z,3415.00
2023-04-18T11:37:59.959Z,3412.00
2023-04-18T11:39:00.000Z,3432.00
2023-04-18T11:40:00.001Z,3437.00
2023-04-18T11:41:00.001Z,3466.00
2023-04-18T11:42:00.023Z,3484.00
2023-04-18T11:43:00.036Z,3472.00
2023-04-18T11:44:00.038Z,3467.00
2023-04-18T11:45:00.069Z,3471.00
2023-04-18T11:46:00.133Z,3514.00
2023-04-18T11:47:00.170Z,3506.00
2023-04-18T11:48:00.100Z,3500.00
2023-04-18T11:49:00.042Z,3519.00
2023-04-18T11:50:00.056Z,3538.00
2023-04-18T11:51:00.037Z,3489.00
2023-04-18T11:52:00.059Z,3475.00
2023-04-18T11:53:00.023Z,3446.00
2023-04-18T11:54:00.055Z,3437.00
2023-04-18T11:55:00.066Z,3382.00
2023-04-18T11:56:00.113Z,3360.00
2023-04-18T11:57:00.112Z,3348.00
2023-04-18T11:58:01.106Z,3374.00
2023-04-18T11:59:00.093Z,3373.00
2023-04-18T12:00:00.165Z,3386.00
2023-04-18T12:01:00.158Z,3349.00
2023-04-18T12:02:14.410Z,3341.00
2023-04-18T12:03:01.178Z,3341.00
2023-04-18T12:04:00.209Z,3331.00
2023-04-18T12:05:00.255Z,3308.00
2023-04-18T12:06:00.016Z,3284.00
2023-04-18T12:06:59.865Z,3289.00
2023-04-18T12:07:59.817Z,3308.00
2023-04-18T12:09:00.629Z,3294.00
2023-04-18T12:09:59.706Z,3268.00
2023-04-18T12:10:59.672Z,3264.00
2023-04-18T12:11:59.692Z,3273.00
2023-04-18T12:12:59.690Z,3263.00